Time;durP1;ratioP1;P1;durP2;ratioP2;P2;SDS_P1;SDS_P2;PMS_P1;PMS_P2;Temp;Humidity;BMP_temperature;BMP_pressure;BME280_temperature;BME280_humidity;BME280_pressure;Samples;Min_cycle;Max_cycle;Signal;HPM_P1;HPM_P2
2022/01/12 00:01:37;;;;;;;115.60;31.48;;;3.30;99.90;;;;;;5056944;28;20076;-78
2022/01/12 00:04:04;;;;;;;155.00;34.33;;;3.30;99.90;;;;;;5056803;28;20129;-82
2022/01/12 00:06:29;;;;;;;152.48;38.05;;;3.30;99.90;;;;;;5057231;28;20040;-78
2022/01/12 00:08:55;;;;;;;238.40;46.95;;;3.30;99.90;;;;;;5056580;28;20052;-81
2022/01/12 00:11:22;;;;;;;223.18;42.33;;;3.40;99.90;;;;;;5040616;28;20554;-79
2022/01/12 00:13:53;;;;;;;133.88;32.20;;;3.40;99.90;;;;;;5073477;28;20052;-78
2022/01/12 00:16:19;;;;;;;173.60;39.22;;;3.40;99.90;;;;;;5073690;28;20044;-78
2022/01/12 00:18:45;;;;;;;146.25;34.55;;;3.40;99.90;;;;;;5056558;28;20127;-78
2022/01/12 00:21:15;;;;;;;146.98;31.58;;;3.30;99.90;;;;;;5040326;28;20127;-78
2022/01/12 00:23:40;;;;;;;129.45;30.25;;;3.40;99.90;;;;;;5056773;28;20560;-81
2022/01/12 00:26:11;;;;;;;189.75;33.08;;;3.40;99.90;;;;;;5039892;28;20040;-80
2022/01/12 00:34:08;;;;;;;195.80;35.13;;;3.40;99.90;;;;;;5058753;28;20074;-82
2022/01/12 00:36:35;;;;;;;235.80;36.75;;;3.40;99.90;;;;;;5039903;28;20514;-82
2022/01/12 00:39:02;;;;;;;450.20;55.00;;;3.40;99.90;;;;;;5056166;28;20044;-81
2022/01/12 00:41:28;;;;;;;561.10;64.70;;;3.40;99.90;;;;;;5056482;28;20047;-78
2022/01/12 00:43:59;;;;;;;467.40;55.03;;;3.40;99.90;;;;;;5039409;28;20045;-82
2022/01/12 00:46:29;;;;;;;370.98;46.28;;;3.40;99.90;;;;;;5056238;28;20041;-82
2022/01/12 00:48:56;;;;;;;400.27;41.38;;;3.40;99.90;;;;;;5072710;28;20075;-78
2022/01/12 00:51:28;;;;;;;523.78;56.85;;;3.40;99.90;;;;;;5072648;28;20094;-78
2022/01/12 00:53:55;;;;;;;541.65;58.08;;;3.40;99.90;;;;;;5055876;28;20084;-81
2022/01/12 00:56:22;;;;;;;608.30;69.20;;;3.40;99.90;;;;;;5072526;28;20075;-78
2022/01/12 00:58:48;;;;;;;490.73;51.10;;;3.40;99.90;;;;;;5055715;28;20048;-79
2022/01/12 01:01:14;;;;;;;577.30;60.00;;;3.40;99.90;;;;;;5039282;28;20071;-82
2022/01/12 01:03:40;;;;;;;510.30;55.97;;;3.40;99.90;;;;;;5055845;28;20041;-81
2022/01/12 01:06:08;;;;;;;588.55;49.03;;;3.40;99.90;;;;;;5072344;28;20048;-78
2022/01/12 01:08:34;;;;;;;414.85;43.08;;;3.40;99.90;;;;;;5055611;28;20047;-81
2022/01/12 01:11:00;;;;;;;854.60;71.78;;;3.50;99.90;;;;;;5072329;28;20127;-81
2022/01/12 01:13:34;;;;;;;604.00;56.17;;;3.50;99.90;;;;;;5039445;28;20113;-78
2022/01/12 01:26:46;;;;;;;886.83;79.55;;;3.40;99.90;;;;;;5072123;28;20106;-81
2022/01/12 01:29:12;;;;;;;542.00;43.42;;;3.40;99.90;;;;;;5072013;28;20041;-82
2022/01/12 01:31:39;;;;;;;785.65;68.20;;;3.40;99.90;;;;;;5071798;28;20080;-78
2022/01/12 01:34:09;;;;;;;605.08;49.95;;;3.40;99.90;;;;;;5071617;28;20139;-81
2022/01/12 01:36:56;;;;;;;788.45;72.68;;;3.50;99.90;;;;;;5072134;28;20545;-82
2022/01/12 01:39:26;;;;;;;640.90;63.33;;;3.40;99.90;;;;;;5054905;28;20680;-81
2022/01/12 01:41:58;;;;;;;480.77;45.17;;;3.40;99.90;;;;;;5055116;28;20109;-78
2022/01/12 01:55:08;;;;;;;664.30;59.90;;;3.40;99.90;;;;;;5057722;28;20044;-78
2022/01/12 01:57:34;;;;;;;571.78;58.42;;;3.50;99.90;;;;;;5054814;28;20049;-82
2022/01/12 02:00:00;;;;;;;292.35;35.20;;;3.50;99.90;;;;;;5054519;28;20135;-81
2022/01/12 02:02:27;;;;;;;525.88;50.20;;;3.50;99.90;;;;;;5055059;28;20076;-78
2022/01/12 02:04:53;;;;;;;540.83;52.38;;;3.60;99.90;;;;;;5038184;28;20052;-78
2022/01/12 02:07:18;;;;;;;621.30;59.30;;;3.60;99.90;;;;;;5071571;28;20134;-80
2022/01/12 02:09:44;;;;;;;503.13;48.05;;;3.60;99.90;;;;;;5054732;28;20043;-81
2022/01/12 02:12:12;;;;;;;562.30;53.28;;;3.60;99.90;;;;;;5071519;28;20123;-78
2022/01/12 02:14:38;;;;;;;536.20;52.58;;;3.60;99.90;;;;;;5055050;28;20423;-80
2022/01/12 02:17:15;;;;;;;564.78;58.55;;;3.60;99.90;;;;;;5054803;28;20255;-81
2022/01/12 02:36:19;;;;;;;660.10;63.72;;;3.40;99.90;;;;;;5071234;28;20145;-78
2022/01/12 02:41:29;;;;;;;732.95;72.38;;;3.30;99.90;;;;;;5057096;28;20049;-81
2022/01/12 02:54:51;;;;;;;523.55;58.97;;;3.30;99.90;;;;;;5071323;28;20044;-82
2022/01/12 02:57:18;;;;;;;470.85;56.78;;;3.30;99.90;;;;;;5054338;28;20032;-78
2022/01/12 03:00:19;;;;;;;379.70;47.22;;;3.30;99.90;;;;;;5054400;28;20087;-81
2022/01/12 03:02:40;;;;;;;343.53;44.37;;;3.20;99.90;;;;;;5070051;28;20055;-81
2022/01/12 03:07:46;;;;;;;257.13;40.93;;;3.10;99.90;;;;;;5071247;28;20456;-78
2022/01/12 03:10:13;;;;;;;243.95;39.80;;;3.00;99.90;;;;;;5039376;28;20048;-82
2022/01/12 03:12:40;;;;;;;261.43;42.27;;;2.90;99.90;;;;;;5074539;28;20048;-78
2022/01/12 03:15:07;;;;;;;203.77;36.97;;;2.80;99.90;;;;;;5058000;28;20041;-77
2022/01/12 03:17:34;;;;;;;240.43;39.97;;;2.60;99.90;;;;;;5074504;28;20127;-81
2022/01/12 03:20:00;;;;;;;265.97;41.57;;;2.60;99.90;;;;;;5058017;28;20048;-80
2022/01/12 03:22:26;;;;;;;250.63;37.23;;;2.50;99.90;;;;;;5074374;28;20079;-81
2022/01/12 03:24:51;;;;;;;277.13;40.87;;;2.40;99.90;;;;;;5074706;28;20037;-78
2022/01/12 03:27:17;;;;;;;412.20;45.50;;;2.20;99.90;;;;;;5057712;28;20047;-78
2022/01/12 03:29:46;;;;;;;471.27;45.07;;;2.00;99.90;;;;;;5057579;28;20530;-78
2022/01/12 03:32:12;;;;;;;724.40;59.87;;;1.70;99.90;;;;;;5057603;28;20067;-81
2022/01/12 03:34:42;;;;;;;773.53;62.25;;;1.50;99.90;;;;;;5041186;28;20080;-79
2022/01/12 03:37:39;;;;;;;866.57;64.73;;;1.30;99.90;;;;;;5074204;28;20044;-81
2022/01/12 03:40:03;;;;;;;901.87;62.60;;;1.10;99.90;;;;;;5073946;28;20048;-81
2022/01/12 03:42:29;;;;;;;830.23;58.53;;;1.00;99.90;;;;;;5057477;28;20055;-81
2022/01/12 03:44:54;;;;;;;726.53;64.77;;;0.90;99.90;;;;;;5057314;28;20037;-77
2022/01/12 03:47:20;;;;;;;796.17;57.83;;;0.80;99.90;;;;;;5040671;28;20082;-80
2022/01/12 03:49:46;;;;;;;725.33;59.07;;;0.70;99.90;;;;;;5057122;28;20044;-81
2022/01/12 03:52:12;;;;;;;753.77;66.30;;;0.60;99.90;;;;;;5057210;28;20127;-81
2022/01/12 03:54:38;;;;;;;655.53;60.13;;;0.50;99.90;;;;;;5057465;28;20044;-81
2022/01/12 03:57:04;;;;;;;288.47;40.10;;;0.50;99.90;;;;;;5057304;28;20047;-81
2022/01/12 03:59:30;;;;;;;186.10;34.87;;;0.40;99.90;;;;;;5040570;28;20044;-78
2022/01/12 04:01:56;;;;;;;202.37;37.93;;;0.40;99.90;;;;;;5057050;28;20403;-77
2022/01/12 04:04:30;;;;;;;217.00;38.47;;;0.50;99.90;;;;;;5057333;28;20080;-78
2022/01/12 04:09:41;;;;;;;409.20;52.03;;;0.70;99.90;;;;;;5073611;28;20048;-78
2022/01/12 04:12:07;;;;;;;398.43;51.03;;;0.80;99.90;;;;;;5056838;28;20044;-78
2022/01/12 04:14:33;;;;;;;400.33;51.23;;;0.70;99.90;;;;;;5023760;28;20076;-77
2022/01/12 04:16:58;;;;;;;344.60;45.03;;;0.60;99.90;;;;;;5073305;28;20510;-82
2022/01/12 04:19:26;;;;;;;226.70;37.80;;;0.40;99.90;;;;;;5056677;28;20036;-77
2022/01/12 04:21:52;;;;;;;642.67;53.67;;;0.30;99.90;;;;;;5055697;28;20124;-82
2022/01/12 04:24:19;;;;;;;719.63;57.80;;;0.10;99.90;;;;;;5023715;28;20131;-78
2022/01/12 04:26:45;;;;;;;626.37;52.77;;;0.10;99.90;;;;;;5073213;28;20133;-81
2022/01/12 04:29:12;;;;;;;552.97;45.33;;;0.00;99.90;;;;;;5039757;28;20044;-78
2022/01/12 04:31:38;;;;;;;623.83;50.50;;;0.00;99.90;;;;;;5072789;28;20222;-81
2022/01/12 04:34:08;;;;;;;681.57;55.10;;;-0.10;99.90;;;;;;5073053;28;20086;-81
2022/01/12 04:36:34;;;;;;;652.70;57.80;;;-0.10;99.90;;;;;;5056605;28;20082;-81
2022/01/12 04:38:59;;;;;;;685.47;60.10;;;-0.10;99.90;;;;;;5056351;28;20045;-81
2022/01/12 04:41:26;;;;;;;750.90;60.87;;;-0.10;99.90;;;;;;5056364;28;20127;-80
2022/01/12 04:43:52;;;;;;;492.73;47.10;;;-0.10;99.90;;;;;;5056228;28;20040;-82
2022/01/12 04:46:26;;;;;;;549.50;52.53;;;-0.20;99.90;;;;;;5073078;28;20040;-78
2022/01/12 04:48:56;;;;;;;518.57;52.87;;;-0.20;99.90;;;;;;5057183;28;20502;-77
2022/01/12 04:51:23;;;;;;;510.20;47.60;;;-0.30;99.90;;;;;;5056632;28;20049;-77
2022/01/12 04:53:49;;;;;;;673.80;58.97;;;-0.40;99.90;;;;;;5055962;28;20083;-78
2022/01/12 04:56:15;;;;;;;613.00;55.87;;;-0.50;99.90;;;;;;5039763;28;20497;-81
2022/01/12 04:58:41;;;;;;;776.37;59.47;;;-0.60;99.90;;;;;;5055839;28;20079;-81
2022/01/12 05:01:11;;;;;;;755.30;59.47;;;-0.50;99.90;;;;;;5072353;28;20131;-78
2022/01/12 05:09:06;;;;;;;741.87;60.30;;;-0.30;99.90;;;;;;5072383;28;20052;-78
2022/01/12 05:14:17;;;;;;;681.30;57.77;;;-0.40;99.90;;;;;;5072611;28;20552;-78
2022/01/12 05:16:43;;;;;;;613.47;52.93;;;-0.50;99.90;;;;;;5039277;28;20037;-81
2022/01/12 05:19:08;;;;;;;472.83;43.93;;;-0.50;99.90;;;;;;5055508;28;20066;-78
2022/01/12 05:21:34;;;;;;;461.03;44.00;;;-0.60;99.90;;;;;;5055553;28;20570;-78
2022/01/12 05:24:05;;;;;;;460.80;43.67;;;-0.60;99.90;;;;;;5071959;28;20403;-78
2022/01/12 05:26:32;;;;;;;624.90;53.17;;;-0.60;99.90;;;;;;5056230;28;20044;-81
2022/01/12 05:28:57;;;;;;;542.43;50.50;;;-0.60;99.90;;;;;;5071851;28;20162;-81
2022/01/12 05:31:24;;;;;;;516.73;48.60;;;-0.60;99.90;;;;;;5055112;28;20563;-81
2022/01/12 05:33:50;;;;;;;615.17;55.73;;;-0.70;99.90;;;;;;5055148;28;20061;-81
2022/01/12 05:36:17;;;;;;;589.33;54.80;;;-0.70;99.90;;;;;;5038764;28;20098;-80
2022/01/12 05:38:44;;;;;;;580.87;51.83;;;-0.70;99.90;;;;;;5055070;28;20048;-78
2022/01/12 05:41:10;;;;;;;586.00;51.30;;;-0.70;99.90;;;;;;5055349;28;20431;-81
2022/01/12 05:43:37;;;;;;;462.70;47.60;;;-0.60;99.90;;;;;;5071827;28;20040;-78
2022/01/12 05:46:10;;;;;;;421.27;42.77;;;-0.60;99.90;;;;;;5038724;28;20202;-81
2022/01/12 05:51:23;;;;;;;483.70;46.83;;;-0.70;99.90;;;;;;5071661;28;20056;-77
2022/01/12 05:53:48;;;;;;;467.93;48.17;;;-0.80;99.90;;;;;;5071564;28;20097;-80
2022/01/12 05:56:14;;;;;;;534.63;51.17;;;-0.80;99.90;;;;;;5071680;28;20542;-81
2022/01/12 05:58:40;;;;;;;570.10;53.43;;;-0.90;99.90;;;;;;5055286;28;20364;-81
2022/01/12 06:01:05;;;;;;;519.73;50.97;;;-0.90;99.90;;;;;;5071602;28;20036;-80
2022/01/12 06:03:32;;;;;;;662.17;62.93;;;-1.00;99.90;;;;;;5071854;28;20537;-81
2022/01/12 06:05:57;;;;;;;544.47;49.43;;;-0.90;99.90;;;;;;5071623;28;20054;-81
2022/01/12 06:08:23;;;;;;;444.80;44.77;;;-0.90;99.90;;;;;;5054627;28;20044;-81
2022/01/12 06:10:49;;;;;;;559.73;49.73;;;-0.80;99.90;;;;;;5071369;28;20058;-77
2022/01/12 06:13:15;;;;;;;543.70;47.30;;;-0.80;99.90;;;;;;5038422;28;20047;-81
2022/01/12 06:15:40;;;;;;;558.87;52.87;;;-0.80;99.90;;;;;;5054941;28;20135;-78
2022/01/12 06:18:06;;;;;;;549.00;51.23;;;-0.80;99.90;;;;;;5055016;28;20041;-78
2022/01/12 06:20:32;;;;;;;479.73;48.83;;;-0.90;99.90;;;;;;5054851;28;20097;-77
2022/01/12 06:22:57;;;;;;;371.27;40.87;;;-0.90;99.90;;;;;;5071621;28;20040;-77
2022/01/12 06:25:23;;;;;;;437.30;43.10;;;-0.90;99.90;;;;;;5054845;28;20045;-79
2022/01/12 06:27:55;;;;;;;438.00;44.33;;;-0.90;99.90;;;;;;5071474;28;20090;-81
2022/01/12 06:32:57;;;;;;;358.93;39.97;;;-0.90;99.90;;;;;;5054924;28;20060;-81
2022/01/12 06:35:23;;;;;;;303.13;39.60;;;-1.10;99.90;;;;;;5071374;28;20053;-81
2022/01/12 06:37:49;;;;;;;318.83;40.57;;;-1.10;99.90;;;;;;5038024;28;20041;-81
2022/01/12 06:40:18;;;;;;;535.93;49.80;;;-1.00;99.90;;;;;;5071255;28;20128;-77
2022/01/12 06:42:46;;;;;;;541.57;51.63;;;-1.00;99.90;;;;;;5054462;28;20135;-80
2022/01/12 06:45:11;;;;;;;385.43;41.90;;;-0.90;99.90;;;;;;5073023;28;20068;-81
2022/01/12 06:47:38;;;;;;;474.90;45.00;;;-0.90;99.90;;;;;;5075318;28;20129;-77
2022/01/12 06:50:04;;;;;;;347.40;40.30;;;-0.90;99.90;;;;;;5058278;28;20403;-77
2022/01/12 06:52:30;;;;;;;386.00;40.17;;;-0.80;99.90;;;;;;5058599;28;20399;-81
2022/01/12 06:54:56;;;;;;;518.60;48.17;;;-0.60;99.90;;;;;;5074925;28;20046;-77
2022/01/12 06:57:21;;;;;;;386.00;42.50;;;-0.40;99.90;;;;;;5074887;28;20044;-80
2022/01/12 06:59:47;;;;;;;453.67;45.97;;;-0.50;99.90;;;;;;5074867;28;20044;-81
2022/01/12 07:02:13;;;;;;;504.27;47.60;;;-0.60;99.90;;;;;;5058148;28;20102;-77
2022/01/12 07:04:39;;;;;;;366.17;39.67;;;-0.60;99.90;;;;;;5074721;28;20553;-77
2022/01/12 07:07:05;;;;;;;451.03;46.23;;;-0.70;99.90;;;;;;5058005;28;20041;-81
2022/01/12 07:09:30;;;;;;;291.00;38.83;;;-0.70;99.90;;;;;;5057978;28;20398;-81
2022/01/12 07:11:56;;;;;;;258.83;36.87;;;-0.60;99.90;;;;;;5041602;28;20066;-78
2022/01/12 07:14:22;;;;;;;377.97;42.67;;;-0.60;99.90;;;;;;5057915;28;20049;-78
2022/01/12 07:16:48;;;;;;;148.57;30.90;;;-0.60;99.90;;;;;;5074814;28;20051;-78
2022/01/12 07:19:14;;;;;;;261.70;39.37;;;-0.60;99.90;;;;;;5074442;28;20131;-77
2022/01/12 07:21:40;;;;;;;211.60;33.60;;;-0.60;99.90;;;;;;5074446;28;20099;-79
2022/01/12 07:24:06;;;;;;;291.43;38.00;;;-0.60;99.90;;;;;;5074314;28;20115;-78
2022/01/12 07:26:33;;;;;;;347.53;40.17;;;-0.60;99.90;;;;;;5074687;28;20506;-78
2022/01/12 07:28:58;;;;;;;467.20;47.23;;;-0.60;99.90;;;;;;5074147;28;20083;-81
2022/01/12 07:31:24;;;;;;;558.17;52.73;;;-0.60;99.90;;;;;;5057347;28;20094;-77
2022/01/12 07:33:50;;;;;;;500.73;47.97;;;-0.70;99.90;;;;;;5074091;28;20051;-81
2022/01/12 07:36:16;;;;;;;658.60;65.67;;;-0.60;99.90;;;;;;5057817;28;20048;-79
2022/01/12 07:38:42;;;;;;;588.23;56.83;;;-0.60;99.90;;;;;;5057386;28;20047;-78
2022/01/12 07:41:08;;;;;;;355.13;44.27;;;-0.60;99.90;;;;;;5074010;28;20410;-81
2022/01/12 07:43:34;;;;;;;233.37;38.07;;;-0.70;99.90;;;;;;5074326;28;20129;-78
2022/01/12 07:46:00;;;;;;;273.57;38.57;;;-0.70;99.90;;;;;;5057360;28;20094;-81
2022/01/12 07:48:26;;;;;;;271.90;36.07;;;-0.70;99.90;;;;;;5073908;28;20057;-81
2022/01/12 07:50:51;;;;;;;273.57;39.57;;;-0.70;99.90;;;;;;5073863;28;20384;-81
2022/01/12 07:53:17;;;;;;;222.67;33.37;;;-0.70;99.90;;;;;;5057150;28;20063;-78
2022/01/12 07:55:43;;;;;;;298.47;40.00;;;-0.70;99.90;;;;;;5057168;28;20041;-78
2022/01/12 07:58:09;;;;;;;267.43;37.23;;;-0.70;99.90;;;;;;5074061;28;20411;-81
2022/01/12 08:00:35;;;;;;;254.30;35.00;;;-0.70;99.90;;;;;;5074115;28;20118;-81
2022/01/12 08:03:01;;;;;;;288.23;38.50;;;-0.70;99.90;;;;;;5073931;28;20157;-78
2022/01/12 08:05:26;;;;;;;258.83;35.83;;;-0.70;99.90;;;;;;5057022;28;20127;-78
2022/01/12 08:07:54;;;;;;;337.20;38.53;;;-0.70;99.90;;;;;;5040540;28;20083;-78
2022/01/12 08:10:21;;;;;;;245.23;34.30;;;-0.60;99.90;;;;;;5073707;28;20048;-81
2022/01/12 08:12:47;;;;;;;219.13;31.77;;;-0.70;99.90;;;;;;5056973;28;20045;-78
2022/01/12 08:15:13;;;;;;;189.87;32.60;;;-0.70;99.90;;;;;;5073524;28;20044;-78
2022/01/12 08:17:39;;;;;;;236.83;34.80;;;-0.70;99.90;;;;;;5056653;28;20044;-78
2022/01/12 08:20:10;;;;;;;189.20;30.80;;;-0.60;99.90;;;;;;5073405;28;20052;-78
2022/01/12 08:22:36;;;;;;;219.93;32.40;;;-0.60;99.90;;;;;;5073295;28;20037;-78
2022/01/12 08:25:02;;;;;;;186.33;30.83;;;-0.60;99.90;;;;;;5056329;28;20044;-78
2022/01/12 08:27:28;;;;;;;291.23;37.67;;;-0.60;99.90;;;;;;5056688;28;20052;-78
2022/01/12 08:30:00;;;;;;;379.03;40.70;;;-0.60;99.90;;;;;;5040034;28;20080;-81
2022/01/12 08:32:26;;;;;;;260.57;35.27;;;-0.50;99.90;;;;;;5057047;28;20048;-81
2022/01/12 08:34:52;;;;;;;353.27;65.77;;;-0.60;99.90;;;;;;5056361;28;20049;-78
2022/01/12 08:37:18;;;;;;;199.63;35.23;;;-0.50;99.90;;;;;;5056691;28;20042;-81
2022/01/12 08:39:43;;;;;;;209.00;38.07;;;-0.60;99.90;;;;;;5072984;28;20044;-78
2022/01/12 08:42:09;;;;;;;226.63;36.80;;;-0.50;99.90;;;;;;5039937;28;20406;-78
2022/01/12 08:44:35;;;;;;;573.63;151.00;;;-0.40;99.90;;;;;;5072712;28;20051;-81
2022/01/12 08:47:02;;;;;;;451.03;120.67;;;-0.50;99.90;;;;;;5039642;28;20037;-78
2022/01/12 08:49:27;;;;;;;765.10;136.67;;;-0.40;99.90;;;;;;5056128;28;20552;-81
2022/01/12 08:51:53;;;;;;;415.43;85.40;;;-0.20;99.90;;;;;;5072925;28;20040;-81
2022/01/12 08:54:19;;;;;;;599.27;116.37;;;-0.40;99.90;;;;;;5072706;28;20063;-78
2022/01/12 08:56:46;;;;;;;629.80;145.43;;;-0.40;99.90;;;;;;5072585;28;20127;-80
2022/01/12 08:59:13;;;;;;;888.63;238.73;;;-0.30;99.90;;;;;;5072670;28;20149;-78
2022/01/12 09:01:40;;;;;;;203.03;40.63;;;-0.30;99.90;;;;;;5072468;28;20048;-78
2022/01/12 09:04:05;;;;;;;223.10;32.83;;;-0.30;99.90;;;;;;5055745;28;20045;-78
2022/01/12 09:06:31;;;;;;;276.57;40.83;;;-0.20;99.90;;;;;;5022653;28;20045;-79
2022/01/12 09:08:57;;;;;;;159.90;23.13;;;-0.20;99.90;;;;;;5071745;28;20455;-80
2022/01/12 09:11:23;;;;;;;202.10;31.47;;;-0.10;99.90;;;;;;5072292;28;20495;-80
2022/01/12 09:13:49;;;;;;;400.37;80.70;;;-0.10;99.90;;;;;;5072162;28;20099;-78
2022/01/12 09:16:15;;;;;;;314.57;70.67;;;0.00;99.90;;;;;;5072250;28;20458;-77
2022/01/12 09:18:42;;;;;;;672.27;171.97;;;0.00;99.90;;;;;;5055583;28;20080;-80
2022/01/12 09:21:08;;;;;;;1065.77;263.60;;;0.00;99.90;;;;;;5022893;28;20498;-78
2022/01/12 09:23:34;;;;;;;1088.93;363.13;;;0.10;99.90;;;;;;5071972;28;20044;-81
2022/01/12 09:26:01;;;;;;;1394.00;363.43;;;0.10;99.90;;;;;;5072034;28;20047;-80
2022/01/12 09:28:27;;;;;;;1999.90;497.77;;;0.20;99.90;;;;;;5055678;28;20048;-81
2022/01/12 09:30:53;;;;;;;732.37;163.43;;;0.30;99.90;;;;;;5071860;28;20461;-77
2022/01/12 09:33:19;;;;;;;1313.53;360.80;;;0.30;99.90;;;;;;5071944;28;20056;-78
2022/01/12 09:35:47;;;;;;;173.13;43.30;;;0.30;99.90;;;;;;5038914;28;20106;-77
2022/01/12 09:38:13;;;;;;;298.67;69.57;;;0.30;99.90;;;;;;5055162;28;20124;-81
2022/01/12 09:40:39;;;;;;;133.60;23.20;;;0.30;99.90;;;;;;5072039;28;20463;-78
2022/01/12 09:43:06;;;;;;;140.50;23.97;;;0.40;99.90;;;;;;5055459;28;20040;-78
2022/01/12 09:45:32;;;;;;;187.40;28.73;;;0.40;99.90;;;;;;5071549;28;20040;-78
2022/01/12 09:47:58;;;;;;;221.27;27.67;;;0.50;99.90;;;;;;5072056;28;20043;-81
2022/01/12 09:50:25;;;;;;;189.80;20.10;;;0.50;99.90;;;;;;5038662;28;20040;-81
2022/01/12 09:52:52;;;;;;;180.30;21.83;;;0.60;99.90;;;;;;5055010;28;20044;-81
2022/01/12 09:55:19;;;;;;;145.03;21.10;;;0.70;99.90;;;;;;5072062;28;20036;-81
2022/01/12 09:57:45;;;;;;;302.00;30.70;;;0.70;99.90;;;;;;5055219;28;20434;-81
2022/01/12 10:00:13;;;;;;;119.77;18.60;;;0.90;99.90;;;;;;5071556;28;20044;-78
2022/01/12 10:02:42;;;;;;;143.10;35.90;;;1.00;99.90;;;;;;5071626;28;20118;-81
2022/01/12 10:05:09;;;;;;;74.47;15.27;;;1.20;99.90;;;;;;5055179;28;20487;-81
2022/01/12 10:07:36;;;;;;;124.60;18.97;;;1.40;99.90;;;;;;5054906;28;20128;-78
2022/01/12 10:10:09;;;;;;;88.47;19.20;;;1.60;99.90;;;;;;5055010;28;20525;-78
2022/01/12 10:12:35;;;;;;;137.80;20.42;;;1.50;99.90;;;;;;5054896;28;20040;-78
2022/01/12 10:15:10;;;;;;;83.03;18.53;;;1.60;99.90;;;;;;5071218;28;20082;-81
2022/01/12 10:17:41;;;;;;;75.93;14.20;;;1.70;99.90;;;;;;5071579;28;20044;-78
2022/01/12 10:20:12;;;;;;;76.60;18.50;;;1.80;99.90;;;;;;5073375;28;20429;-78
2022/01/12 10:22:39;;;;;;;216.10;73.70;;;1.90;99.90;;;;;;5075788;28;20094;-78
2022/01/12 10:25:32;;;;;;;71.73;15.83;;;2.00;99.90;;;;;;5075794;28;20417;-78
2022/01/12 10:27:58;;;;;;;132.13;23.40;;;2.00;99.90;;;;;;5057791;28;20568;-78
2022/01/12 10:30:30;;;;;;;74.47;15.10;;;2.10;99.90;;;;;;5075569;28;20079;-78
2022/01/12 10:32:58;;;;;;;78.07;15.02;;;2.20;99.90;;;;;;5075158;28;20044;-78
2022/01/12 10:35:29;;;;;;;70.35;12.63;;;2.30;99.90;;;;;;5058510;28;20040;-78
2022/01/12 10:38:09;;;;;;;143.90;21.67;;;2.40;99.90;;;;;;5058625;28;20044;-78
2022/01/12 10:40:50;;;;;;;133.38;20.30;;;2.40;99.90;;;;;;5059150;28;20123;-81
2022/01/12 10:43:28;;;;;;;146.80;20.27;;;2.60;99.90;;;;;;5058802;28;20044;-82
2022/01/12 10:45:54;;;;;;;56.95;10.30;;;2.70;99.90;;;;;;5075401;28;20479;-82
2022/01/12 10:48:20;;;;;;;31.25;6.75;;;2.80;99.90;;;;;;5075254;28;20047;-78
2022/01/12 10:50:54;;;;;;;81.00;11.43;;;2.90;99.90;;;;;;5058445;28;20048;-82
2022/01/12 10:53:33;;;;;;;50.50;10.10;;;2.90;99.90;;;;;;5074965;28;20089;-81
2022/01/12 10:56:08;;;;;;;113.68;15.70;;;3.00;99.90;;;;;;5058309;28;20090;-79
2022/01/12 10:58:37;;;;;;;50.75;8.82;;;3.10;99.90;;;;;;5058711;28;20394;-82
2022/01/12 11:01:03;;;;;;;17.63;5.20;;;3.10;99.90;;;;;;5058654;28;20547;-78
2022/01/12 11:03:30;;;;;;;44.50;8.95;;;3.30;99.90;;;;;;5074760;28;20040;-81
2022/01/12 11:05:56;;;;;;;91.80;11.10;;;3.30;99.90;;;;;;5058188;28;20364;-82
2022/01/12 11:08:24;;;;;;;70.75;13.00;;;3.50;99.90;;;;;;5041655;28;20498;-78
2022/01/12 11:10:50;;;;;;;126.82;20.00;;;3.50;99.90;;;;;;5074840;28;20398;-82
2022/01/12 11:13:16;;;;;;;21.83;3.88;;;3.70;99.90;;;;;;5074633;28;20044;-79
2022/01/12 11:15:42;;;;;;;81.15;15.68;;;3.70;99.90;;;;;;5057787;28;20041;-82
2022/01/12 11:18:09;;;;;;;33.85;5.68;;;3.80;99.90;;;;;;5057740;28;20044;-78
2022/01/12 11:20:37;;;;;;;86.32;15.90;;;3.80;99.90;;;;;;5057835;28;20167;-81
2022/01/12 11:23:12;;;;;;;19.88;6.05;;;4.00;99.90;;;;;;5074348;28;20052;-82
2022/01/12 11:25:45;;;;;;;60.92;13.02;;;4.10;99.90;;;;;;5074425;28;20041;-79
2022/01/12 11:28:37;;;;;;;43.22;10.00;;;4.20;99.90;;;;;;5057444;28;20083;-82
2022/01/12 11:31:04;;;;;;;32.55;8.40;;;4.30;99.90;;;;;;5057183;28;20052;-78
2022/01/12 11:33:33;;;;;;;54.75;14.43;;;4.40;99.90;;;;;;5041159;28;20116;-79
2022/01/12 11:36:05;;;;;;;29.17;7.45;;;4.40;99.90;;;;;;5074071;28;20106;-79
2022/01/12 11:38:35;;;;;;;32.60;9.90;;;4.50;99.90;;;;;;5074079;28;20053;-82
2022/01/12 11:41:22;;;;;;;37.95;9.60;;;4.50;99.90;;;;;;5057474;28;20372;-82
2022/01/12 11:43:52;;;;;;;21.88;7.88;;;4.50;99.90;;;;;;5073892;28;20051;-78
2022/01/12 11:46:19;;;;;;;31.77;8.20;;;4.40;99.90;;;;;;5073953;28;20125;-78
2022/01/12 11:48:58;;;;;;;23.77;6.50;;;4.40;99.90;;;;;;5074032;28;20530;-81
2022/01/12 11:51:35;;;;;;;44.75;11.30;;;4.40;99.90;;;;;;5057550;28;20485;-78
2022/01/12 11:54:13;;;;;;;32.95;8.80;;;4.50;99.90;;;;;;5057442;28;20545;-82
2022/01/12 11:57:04;;;;;;;43.60;12.40;;;4.50;99.90;;;;;;5073764;28;20047;-82
2022/01/12 11:59:48;;;;;;;44.17;12.65;;;4.50;99.90;;;;;;5057297;28;20517;-78
2022/01/12 12:02:14;;;;;;;26.08;8.35;;;4.70;99.90;;;;;;5056925;28;20055;-82
2022/01/12 12:05:02;;;;;;;50.97;14.80;;;4.70;99.90;;;;;;5073588;28;20048;-78
2022/01/12 12:07:28;;;;;;;31.80;9.30;;;4.80;99.90;;;;;;5056965;28;20070;-82
2022/01/12 12:09:58;;;;;;;56.55;15.15;;;4.90;99.90;;;;;;5073467;28;20048;-78
2022/01/12 12:12:29;;;;;;;31.58;8.90;;;4.90;99.90;;;;;;5073670;28;20055;-81
2022/01/12 12:14:59;;;;;;;48.55;10.80;;;5.00;99.90;;;;;;5056853;28;20050;-81
2022/01/12 12:17:28;;;;;;;29.00;7.55;;;5.00;99.90;;;;;;5040729;28;20048;-82
2022/01/12 12:19:55;;;;;;;39.72;11.65;;;5.10;99.90;;;;;;5057074;28;20044;-78
2022/01/12 12:22:25;;;;;;;51.17;13.13;;;5.00;99.90;;;;;;5073639;28;20145;-79
2022/01/12 12:25:11;;;;;;;27.67;9.02;;;5.10;99.90;;;;;;5073307;28;20048;-78
2022/01/12 12:27:41;;;;;;;36.88;11.30;;;5.10;99.90;;;;;;5056531;28;20043;-82
2022/01/12 12:30:12;;;;;;;30.55;11.05;;;5.20;99.90;;;;;;5073075;28;20226;-78
2022/01/12 12:32:42;;;;;;;50.40;15.75;;;5.20;99.90;;;;;;5073087;28;20513;-78
2022/01/12 12:35:20;;;;;;;50.15;14.27;;;5.20;99.90;;;;;;5073167;28;20052;-78
2022/01/12 12:37:53;;;;;;;31.98;10.93;;;5.30;99.90;;;;;;5056373;28;20047;-78
2022/01/12 12:40:28;;;;;;;;;;;5.30;99.90;;;;;;5057240;28;20483;-82
2022/01/12 12:43:23;;;;;;;38.38;9.25;;;5.40;99.90;;;;;;5055300;28;19926;-78
2022/01/12 12:45:51;;;;;;;29.50;9.45;;;5.40;99.90;;;;;;5056248;28;20491;-79
2022/01/12 12:48:21;;;;;;;31.92;9.95;;;5.60;99.90;;;;;;5072926;28;20503;-82
2022/01/12 12:50:54;;;;;;;23.75;9.57;;;5.80;99.90;;;;;;5055907;28;20043;-82
2022/01/12 12:53:25;;;;;;;31.65;10.38;;;5.60;99.90;;;;;;5072719;28;20059;-79
2022/01/12 12:55:51;;;;;;;30.13;9.82;;;5.70;99.90;;;;;;5072524;28;20044;-82
2022/01/12 12:58:17;;;;;;;37.53;11.38;;;5.60;99.90;;;;;;5072331;28;20041;-82
2022/01/12 13:00:42;;;;;;;47.47;13.70;;;5.70;99.90;;;;;;5055862;28;20430;-79
2022/01/12 13:03:08;;;;;;;27.75;9.32;;;5.70;99.90;;;;;;5073646;28;20048;-79
2022/01/12 13:05:43;;;;;;;35.50;11.05;;;5.70;99.90;;;;;;5059104;28;20045;-78
2022/01/12 13:08:11;;;;;;;33.95;9.85;;;5.60;99.90;;;;;;5075508;28;20117;-82
2022/01/12 13:10:38;;;;;;;35.80;12.05;;;5.80;99.90;;;;;;5073345;28;20041;-82
2022/01/12 13:13:08;;;;;;;40.40;14.48;;;6.10;99.90;;;;;;5058394;28;20372;-82
2022/01/12 13:15:40;;;;;;;26.52;8.98;;;6.30;99.90;;;;;;5075090;28;20084;-79
2022/01/12 13:18:08;;;;;;;37.97;11.93;;;6.20;99.90;;;;;;5074503;28;20049;-79
2022/01/12 13:23:26;;;;;;;39.17;15.15;;;6.00;99.90;;;;;;5073777;28;20507;-82
2022/01/12 13:26:06;;;;;;;37.70;13.38;;;5.90;99.90;;;;;;5055312;28;20048;-79
2022/01/12 13:28:35;;;;;;;34.63;10.10;;;6.00;99.90;;;;;;5072188;28;20082;-82
2022/01/12 13:31:04;;;;;;;18.95;6.68;;;5.90;99.90;;;;;;5071894;28;20045;-83
2022/01/12 13:33:45;;;;;;;43.40;12.27;;;5.70;99.90;;;;;;5071661;28;20062;-82
2022/01/12 13:36:13;;;;;;;29.05;8.88;;;5.50;99.90;;;;;;5071915;28;20049;-79
2022/01/12 13:38:40;;;;;;;30.25;9.05;;;5.40;99.90;;;;;;5071961;28;20044;-78
2022/01/12 13:41:15;;;;;;;18.65;6.40;;;5.40;99.90;;;;;;5055282;28;20076;-79
2022/01/12 13:43:44;;;;;;;31.30;9.30;;;5.40;99.90;;;;;;5055310;28;20556;-82
2022/01/12 13:46:15;;;;;;;33.30;9.70;;;5.20;99.90;;;;;;5071981;28;20408;-78
2022/01/12 13:51:58;;;;;;;24.73;9.52;;;5.20;99.90;;;;;;5060217;28;20040;-78
2022/01/12 13:54:29;;;;;;;16.45;6.28;;;5.10;99.90;;;;;;5055180;28;20041;-80
2022/01/12 13:56:56;;;;;;;25.88;9.82;;;5.10;99.90;;;;;;5072137;28;20128;-78